sensor_id;sensor_type;location;lat;lon;timestamp;pressure;altitude;pressure_sealevel;temperature;humidity
47706;BME280;33471;52.104;1.318;2023-02-14T00:00:31;102962.33;;;8.75;46.48
47706;BME280;33471;52.104;1.318;2023-02-14T00:02:58;102959.33;;;8.91;46.34
47706;BME280;33471;52.104;1.318;2023-02-14T00:05:26;102960.99;;;8.88;46.17
47706;BME280;33471;52.104;1.318;2023-02-14T00:07:54;102957.88;;;8.86;45.96
47706;BME280;33471;52.104;1.318;2023-02-14T00:10:21;102956.70;;;8.79;46.15
47706;BME280;33471;52.104;1.318;2023-02-14T00:12:48;102953.47;;;8.60;46.52
47706;BME280;33471;52.104;1.318;2023-02-14T00:15:16;102951.88;;;8.59;46.67
47706;BME280;33471;52.104;1.318;2023-02-14T00:17:43;102949.17;;;8.63;46.58
47706;BME280;33471;52.104;1.318;2023-02-14T00:20:10;102951.63;;;8.52;46.47
47706;BME280;33471;52.104;1.318;2023-02-14T00:22:38;102947.47;;;8.96;45.84
47706;BME280;33471;52.104;1.318;2023-02-14T00:25:05;102950.81;;;8.77;46.11
47706;BME280;33471;52.104;1.318;2023-02-14T00:27:32;102946.38;;;8.87;45.71
47706;BME280;33471;52.104;1.318;2023-02-14T00:30:00;102940.94;;;8.81;46.31
47706;BME280;33471;52.104;1.318;2023-02-14T00:32:28;102938.65;;;8.43;46.72
47706;BME280;33471;52.104;1.318;2023-02-14T00:34:56;102936.31;;;8.52;46.57
47706;BME280;33471;52.104;1.318;2023-02-14T00:37:23;102936.80;;;8.49;46.76
47706;BME280;33471;52.104;1.318;2023-02-14T00:39:50;102936.07;;;8.51;46.73
47706;BME280;33471;52.104;1.318;2023-02-14T00:42:18;102937.63;;;8.65;46.51
47706;BME280;33471;52.104;1.318;2023-02-14T00:44:45;102933.21;;;8.57;46.66
47706;BME280;33471;52.104;1.318;2023-02-14T00:47:12;102934.31;;;8.45;46.85
47706;BME280;33471;52.104;1.318;2023-02-14T00:49:39;102934.91;;;8.57;46.66
47706;BME280;33471;52.104;1.318;2023-02-14T00:52:06;102932.77;;;8.77;46.22
47706;BME280;33471;52.104;1.318;2023-02-14T00:54:34;102930.82;;;8.87;45.69
47706;BME280;33471;52.104;1.318;2023-02-14T00:57:01;102931.25;;;8.66;46.25
47706;BME280;33471;52.104;1.318;2023-02-14T00:59:28;102924.37;;;8.53;46.25
47706;BME280;33471;52.104;1.318;2023-02-14T01:01:56;102919.51;;;8.39;46.48
47706;BME280;33471;52.104;1.318;2023-02-14T01:04:23;102921.78;;;8.40;46.38
47706;BME280;33471;52.104;1.318;2023-02-14T01:06:51;102920.61;;;8.46;46.10
47706;BME280;33471;52.104;1.318;2023-02-14T01:09:19;102916.13;;;8.38;46.14
47706;BME280;33471;52.104;1.318;2023-02-14T01:11:46;102915.41;;;8.27;46.12
47706;BME280;33471;52.104;1.318;2023-02-14T01:14:13;102914.29;;;8.06;46.05
47706;BME280;33471;52.104;1.318;2023-02-14T01:16:40;102909.04;;;8.20;45.72
47706;BME280;33471;52.104;1.318;2023-02-14T01:19:07;102908.71;;;8.48;45.80
47706;BME280;33471;52.104;1.318;2023-02-14T01:21:34;102909.25;;;8.30;45.79
47706;BME280;33471;52.104;1.318;2023-02-14T01:24:04;102908.54;;;8.18;45.72
47706;BME280;33471;52.104;1.318;2023-02-14T01:26:32;102907.11;;;7.80;45.75
47706;BME280;33471;52.104;1.318;2023-02-14T01:28:59;102910.69;;;8.18;45.75
47706;BME280;33471;52.104;1.318;2023-02-14T01:31:28;102908.03;;;7.91;45.65
47706;BME280;33471;52.104;1.318;2023-02-14T01:33:56;102910.83;;;8.06;45.68
47706;BME280;33471;52.104;1.318;2023-02-14T01:36:26;102909.38;;;7.94;45.64
47706;BME280;33471;52.104;1.318;2023-02-14T01:38:55;102912.42;;;7.38;45.85
47706;BME280;33471;52.104;1.318;2023-02-14T01:41:25;102908.82;;;7.27;45.52
47706;BME280;33471;52.104;1.318;2023-02-14T01:43:56;102906.32;;;7.58;45.63
47706;BME280;33471;52.104;1.318;2023-02-14T01:46:27;102905.17;;;7.29;45.58
47706;BME280;33471;52.104;1.318;2023-02-14T01:49:00;102907.10;;;7.69;44.98
47706;BME280;33471;52.104;1.318;2023-02-14T01:51:30;102903.74;;;7.40;45.21
47706;BME280;33471;52.104;1.318;2023-02-14T01:53:59;102899.68;;;6.92;45.94
47706;BME280;33471;52.104;1.318;2023-02-14T01:56:31;102902.65;;;7.04;45.46
47706;BME280;33471;52.104;1.318;2023-02-14T01:59:02;102900.77;;;7.45;45.46
47706;BME280;33471;52.104;1.318;2023-02-14T02:01:31;102905.20;;;7.20;45.53
47706;BME280;33471;52.104;1.318;2023-02-14T02:04:02;102905.22;;;7.38;45.63
47706;BME280;33471;52.104;1.318;2023-02-14T02:06:34;102905.93;;;7.23;45.58
47706;BME280;33471;52.104;1.318;2023-02-14T02:09:09;102904.96;;;7.31;45.71
47706;BME280;33471;52.104;1.318;2023-02-14T02:11:39;102899.27;;;7.07;45.75
47706;BME280;33471;52.104;1.318;2023-02-14T02:14:14;102901.78;;;7.30;45.65
47706;BME280;33471;52.104;1.318;2023-02-14T02:16:52;102897.84;;;6.52;45.72
47706;BME280;33471;52.104;1.318;2023-02-14T02:20:27;102897.97;;;7.75;45.63
47706;BME280;33471;52.104;1.318;2023-02-14T02:23:26;102895.83;;;7.11;45.61
47706;BME280;33471;52.104;1.318;2023-02-14T02:26:27;102894.46;;;6.83;45.58
47706;BME280;33471;52.104;1.318;2023-02-14T02:30:08;102892.82;;;7.90;45.55
47706;BME280;33471;52.104;1.318;2023-02-14T02:33:12;102890.27;;;7.15;45.19
47706;BME280;33471;52.104;1.318;2023-02-14T02:35:56;102892.32;;;6.95;45.16
47706;BME280;33471;52.104;1.318;2023-02-14T02:38:41;102891.56;;;6.82;44.96
47706;BME280;33471;52.104;1.318;2023-02-14T02:41:17;102889.57;;;7.02;44.94
47706;BME280;33471;52.104;1.318;2023-02-14T02:43:54;102888.49;;;6.79;45.04
47706;BME280;33471;52.104;1.318;2023-02-14T02:46:33;102889.44;;;6.72;45.30
47706;BME280;33471;52.104;1.318;2023-02-14T02:49:07;102888.26;;;7.07;45.26
47706;BME280;33471;52.104;1.318;2023-02-14T02:51:42;102885.45;;;6.80;45.44
47706;BME280;33471;52.104;1.318;2023-02-14T02:54:17;102883.88;;;7.12;45.18
47706;BME280;33471;52.104;1.318;2023-02-14T02:56:49;102879.84;;;7.25;44.76
47706;BME280;33471;52.104;1.318;2023-02-14T02:59:21;102875.79;;;7.17;44.76
47706;BME280;33471;52.104;1.318;2023-02-14T03:01:55;102876.77;;;7.24;44.97
47706;BME280;33471;52.104;1.318;2023-02-14T03:04:26;102873.66;;;7.29;44.72
47706;BME280;33471;52.104;1.318;2023-02-14T03:06:54;102873.73;;;7.03;44.71
47706;BME280;33471;52.104;1.318;2023-02-14T03:09:56;102872.11;;;7.61;45.09
47706;BME280;33471;52.104;1.318;2023-02-14T03:12:41;102871.59;;;6.48;45.32
47706;BME280;33471;52.104;1.318;2023-02-14T03:15:21;102870.39;;;6.70;44.96
47706;BME280;33471;52.104;1.318;2023-02-14T03:18:00;102866.54;;;6.53;45.17
47706;BME280;33471;52.104;1.318;2023-02-14T03:20:37;102863.44;;;6.23;45.65
47706;BME280;33471;52.104;1.318;2023-02-14T03:23:15;102862.39;;;6.09;45.60
47706;BME280;33471;52.104;1.318;2023-02-14T03:25:52;102865.52;;;6.12;45.68
47706;BME280;33471;52.104;1.318;2023-02-14T03:28:27;102864.80;;;6.16;45.66
47706;BME280;33471;52.104;1.318;2023-02-14T03:31:00;102862.79;;;6.54;45.49
47706;BME280;33471;52.104;1.318;2023-02-14T03:33:31;102861.22;;;6.38;45.53
47706;BME280;33471;52.104;1.318;2023-02-14T03:36:07;102857.29;;;6.60;45.52
47706;BME280;33471;52.104;1.318;2023-02-14T03:38:41;102858.17;;;6.22;45.66
47706;BME280;33471;52.104;1.318;2023-02-14T03:41:13;102858.89;;;6.21;45.62
47706;BME280;33471;52.104;1.318;2023-02-14T03:43:47;102862.05;;;6.40;45.42
47706;BME280;33471;52.104;1.318;2023-02-14T03:46:18;102859.99;;;6.39;45.06
47706;BME280;33471;52.104;1.318;2023-02-14T03:48:48;102862.96;;;6.34;45.36
47706;BME280;33471;52.104;1.318;2023-02-14T03:51:18;102863.85;;;6.92;45.13
47706;BME280;33471;52.104;1.318;2023-02-14T03:53:54;102861.46;;;6.56;44.70
47706;BME280;33471;52.104;1.318;2023-02-14T03:56:28;102862.43;;;6.43;44.81
47706;BME280;33471;52.104;1.318;2023-02-14T03:59:00;102858.30;;;6.38;44.92
47706;BME280;33471;52.104;1.318;2023-02-14T04:01:34;102856.95;;;6.77;44.94
47706;BME280;33471;52.104;1.318;2023-02-14T04:04:03;102859.15;;;7.01;44.26
47706;BME280;33471;52.104;1.318;2023-02-14T04:06:32;102859.30;;;6.66;44.92
47706;BME280;33471;52.104;1.318;2023-02-14T04:09:00;102854.65;;;6.28;45.55
47706;BME280;33471;52.104;1.318;2023-02-14T04:11:27;102856.71;;;6.60;45.75
47706;BME280;33471;52.104;1.318;2023-02-14T04:13:55;102855.10;;;6.90;45.18
47706;BME280;33471;52.104;1.318;2023-02-14T04:16:22;102858.29;;;6.47;45.54
47706;BME280;33471;52.104;1.318;2023-02-14T04:18:49;102857.57;;;6.81;45.66
47706;BME280;33471;52.104;1.318;2023-02-14T04:21:17;102856.83;;;7.03;45.39
47706;BME280;33471;52.104;1.318;2023-02-14T04:23:44;102854.22;;;6.97;45.58
47706;BME280;33471;52.104;1.318;2023-02-14T04:26:12;102854.24;;;6.94;45.99
47706;BME280;33471;52.104;1.318;2023-02-14T04:28:39;102855.69;;;6.96;46.51
47706;BME280;33471;52.104;1.318;2023-02-14T04:31:06;102854.96;;;6.78;46.96
47706;BME280;33471;52.104;1.318;2023-02-14T04:33:33;102852.60;;;6.46;47.45
47706;BME280;33471;52.104;1.318;2023-02-14T04:36:01;102852.01;;;6.17;47.88
47706;BME280;33471;52.104;1.318;2023-02-14T04:38:28;102857.07;;;6.33;47.89
47706;BME280;33471;52.104;1.318;2023-02-14T04:40:57;102855.87;;;5.83;47.46
47706;BME280;33471;52.104;1.318;2023-02-14T04:43:24;102857.24;;;6.18;47.23
47706;BME280;33471;52.104;1.318;2023-02-14T04:45:52;102861.03;;;6.05;47.56
47706;BME280;33471;52.104;1.318;2023-02-14T04:48:20;102863.91;;;6.23;47.17
47706;BME280;33471;52.104;1.318;2023-02-14T04:50:50;102863.72;;;6.16;47.25
47706;BME280;33471;52.104;1.318;2023-02-14T04:53:18;102860.76;;;5.88;47.19
47706;BME280;33471;52.104;1.318;2023-02-14T04:55:48;102861.33;;;6.67;47.05
47706;BME280;33471;52.104;1.318;2023-02-14T04:58:16;102863.29;;;6.85;46.66
47706;BME280;33471;52.104;1.318;2023-02-14T05:00:44;102860.36;;;6.87;46.41
47706;BME280;33471;52.104;1.318;2023-02-14T05:03:11;102860.51;;;7.13;46.84
47706;BME280;33471;52.104;1.318;2023-02-14T05:05:38;102868.44;;;6.31;47.39
47706;BME280;33471;52.104;1.318;2023-02-14T05:08:05;102864.93;;;6.58;47.26
47706;BME280;33471;52.104;1.318;2023-02-14T05:10:33;102860.67;;;7.02;47.55
47706;BME280;33471;52.104;1.318;2023-02-14T05:13:00;102864.61;;;6.39;48.55
47706;BME280;33471;52.104;1.318;2023-02-14T05:15:27;102861.92;;;6.24;48.29
47706;BME280;33471;52.104;1.318;2023-02-14T05:17:54;102857.52;;;6.55;48.19
47706;BME280;33471;52.104;1.318;2023-02-14T05:20:21;102860.00;;;6.60;48.10
47706;BME280;33471;52.104;1.318;2023-02-14T05:22:49;102859.48;;;6.27;48.17
47706;BME280;33471;52.104;1.318;2023-02-14T05:25:17;102864.16;;;6.69;47.81
47706;BME280;33471;52.104;1.318;2023-02-14T05:27:45;102856.88;;;6.75;47.12
47706;BME280;33471;52.104;1.318;2023-02-14T05:30:13;102854.18;;;6.89;47.30
47706;BME280;33471;52.104;1.318;2023-02-14T05:32:40;102862.63;;;6.77;47.53
47706;BME280;33471;52.104;1.318;2023-02-14T05:35:08;102863.75;;;6.58;48.08
47706;BME280;33471;52.104;1.318;2023-02-14T05:37:35;102860.21;;;6.89;47.11
47706;BME280;33471;52.104;1.318;2023-02-14T05:40:04;102856.05;;;6.64;47.89
47706;BME280;33471;52.104;1.318;2023-02-14T05:42:31;102859.19;;;6.86;47.59
47706;BME280;33471;52.104;1.318;2023-02-14T05:44:58;102862.28;;;6.35;48.33
47706;BME280;33471;52.104;1.318;2023-02-14T05:47:25;102865.71;;;6.57;48.23
47706;BME280;33471;52.104;1.318;2023-02-14T05:49:52;102861.74;;;6.66;48.27
47706;BME280;33471;52.104;1.318;2023-02-14T05:52:20;102864.14;;;6.62;48.40
47706;BME280;33471;52.104;1.318;2023-02-14T05:54:47;102861.27;;;6.56;48.33
47706;BME280;33471;52.104;1.318;2023-02-14T05:57:16;102863.05;;;6.66;48.26
47706;BME280;33471;52.104;1.318;2023-02-14T05:59:43;102866.39;;;6.67;48.00
47706;BME280;33471;52.104;1.318;2023-02-14T06:02:10;102862.16;;;6.42;47.45
47706;BME280;33471;52.104;1.318;2023-02-14T06:04:37;102855.56;;;6.46;46.20
47706;BME280;33471;52.104;1.318;2023-02-14T06:07:05;102859.49;;;6.60;47.51
47706;BME280;33471;52.104;1.318;2023-02-14T06:09:32;102857.39;;;6.31;46.71
47706;BME280;33471;52.104;1.318;2023-02-14T06:11:59;102860.16;;;6.73;47.19
47706;BME280;33471;52.104;1.318;2023-02-14T06:14:26;102860.00;;;7.02;46.52
47706;BME280;33471;52.104;1.318;2023-02-14T06:16:53;102859.49;;;7.01;46.08
47706;BME280;33471;52.104;1.318;2023-02-14T06:19:21;102866.89;;;6.86;46.24
47706;BME280;33471;52.104;1.318;2023-02-14T06:21:48;102867.78;;;7.24;45.86
47706;BME280;33471;52.104;1.318;2023-02-14T06:24:16;102869.08;;;7.06;46.23
47706;BME280;33471;52.104;1.318;2023-02-14T06:26:43;102867.34;;;7.06;46.24
47706;BME280;33471;52.104;1.318;2023-02-14T06:29:10;102872.24;;;6.74;46.79
47706;BME280;33471;52.104;1.318;2023-02-14T06:31:37;102870.83;;;7.13;46.64
47706;BME280;33471;52.104;1.318;2023-02-14T06:34:04;102873.04;;;6.84;46.85
47706;BME280;33471;52.104;1.318;2023-02-14T06:36:32;102870.58;;;6.57;47.01
47706;BME280;33471;52.104;1.318;2023-02-14T06:38:59;102874.98;;;6.80;47.07
47706;BME280;33471;52.104;1.318;2023-02-14T06:41:26;102876.45;;;6.65;47.46
47706;BME280;33471;52.104;1.318;2023-02-14T06:43:54;102880.81;;;6.79;47.41
47706;BME280;33471;52.104;1.318;2023-02-14T06:46:22;102881.52;;;6.83;46.78
47706;BME280;33471;52.104;1.318;2023-02-14T06:48:49;102887.41;;;7.16;46.87
47706;BME280;33471;52.104;1.318;2023-02-14T06:51:17;102895.36;;;6.92;47.45
47706;BME280;33471;52.104;1.318;2023-02-14T06:53:44;102894.08;;;6.60;46.74
47706;BME280;33471;52.104;1.318;2023-02-14T06:56:11;102893.29;;;6.98;47.51
47706;BME280;33471;52.104;1.318;2023-02-14T06:58:39;102894.46;;;6.62;47.98
47706;BME280;33471;52.104;1.318;2023-02-14T07:01:06;102893.32;;;7.06;47.25
47706;BME280;33471;52.104;1.318;2023-02-14T07:03:33;102894.07;;;7.15;47.65
47706;BME280;33471;52.104;1.318;2023-02-14T07:06:00;102886.77;;;6.81;47.75
47706;BME280;33471;52.104;1.318;2023-02-14T07:08:28;102885.94;;;6.84;47.43
47706;BME280;33471;52.104;1.318;2023-02-14T07:10:55;102885.71;;;6.95;47.35
47706;BME280;33471;52.104;1.318;2023-02-14T07:13:23;102887.86;;;7.16;47.34
47706;BME280;33471;52.104;1.318;2023-02-14T07:15:50;102886.02;;;7.11;46.92
47706;BME280;33471;52.104;1.318;2023-02-14T07:18:17;102888.04;;;7.14;47.51
47706;BME280;33471;52.104;1.318;2023-02-14T07:20:45;102891.39;;;7.23;47.15
47706;BME280;33471;52.104;1.318;2023-02-14T07:23:12;102885.72;;;7.11;47.27
47706;BME280;33471;52.104;1.318;2023-02-14T07:25:40;102884.30;;;7.08;47.78
47706;BME280;33471;52.104;1.318;2023-02-14T07:28:07;102880.21;;;7.00;47.60
47706;BME280;33471;52.104;1.318;2023-02-14T07:30:34;102878.84;;;6.89;47.74
47706;BME280;33471;52.104;1.318;2023-02-14T07:33:01;102880.43;;;6.59;48.15
47706;BME280;33471;52.104;1.318;2023-02-14T07:35:28;102883.44;;;7.10;47.62
47706;BME280;33471;52.104;1.318;2023-02-14T07:37:55;102881.05;;;6.78;47.56
47706;BME280;33471;52.104;1.318;2023-02-14T07:40:23;102878.11;;;6.88;47.50
47706;BME280;33471;52.104;1.318;2023-02-14T07:42:54;102880.91;;;7.10;47.63
47706;BME280;33471;52.104;1.318;2023-02-14T07:45:23;102885.63;;;6.81;47.64
47706;BME280;33471;52.104;1.318;2023-02-14T07:47:53;102888.68;;;7.10;47.85
47706;BME280;33471;52.104;1.318;2023-02-14T07:50:21;102892.61;;;7.03;48.01
47706;BME280;33471;52.104;1.318;2023-02-14T07:52:49;102898.55;;;6.71;48.76
47706;BME280;33471;52.104;1.318;2023-02-14T07:55:17;102893.48;;;6.21;49.59
47706;BME280;33471;52.104;1.318;2023-02-14T07:57:46;102891.60;;;6.90;49.04
47706;BME280;33471;52.104;1.318;2023-02-14T08:00:14;102894.66;;;6.81;49.31
47706;BME280;33471;52.104;1.318;2023-02-14T08:02:42;102897.61;;;7.13;48.53
47706;BME280;33471;52.104;1.318;2023-02-14T08:05:09;102894.44;;;7.38;48.45
47706;BME280;33471;52.104;1.318;2023-02-14T08:07:37;102899.74;;;7.44;48.45
47706;BME280;33471;52.104;1.318;2023-02-14T08:10:05;102898.01;;;7.42;48.37
47706;BME280;33471;52.104;1.318;2023-02-14T08:12:33;102893.33;;;7.29;49.13
47706;BME280;33471;52.104;1.318;2023-02-14T08:15:00;102892.86;;;7.26;49.51
47706;BME280;33471;52.104;1.318;2023-02-14T08:17:27;102893.78;;;7.03;50.00
47706;BME280;33471;52.104;1.318;2023-02-14T08:19:54;102891.00;;;7.24;49.05
47706;BME280;33471;52.104;1.318;2023-02-14T08:22:21;102892.98;;;7.58;48.87
47706;BME280;33471;52.104;1.318;2023-02-14T08:24:49;102888.93;;;7.83;48.46
47706;BME280;33471;52.104;1.318;2023-02-14T08:27:17;102891.11;;;7.71;47.89
47706;BME280;33471;52.104;1.318;2023-02-14T08:29:44;102890.19;;;7.87;47.86
47706;BME280;33471;52.104;1.318;2023-02-14T08:32:11;102895.60;;;7.65;48.67
47706;BME280;33471;52.104;1.318;2023-02-14T08:34:39;102897.49;;;7.71;47.67
47706;BME280;33471;52.104;1.318;2023-02-14T08:37:06;102896.36;;;7.81;48.19
47706;BME280;33471;52.104;1.318;2023-02-14T08:39:33;102905.52;;;7.64;48.92
47706;BME280;33471;52.104;1.318;2023-02-14T08:42:00;102910.71;;;7.50;48.68
47706;BME280;33471;52.104;1.318;2023-02-14T08:44:28;102905.78;;;7.09;50.08
47706;BME280;33471;52.104;1.318;2023-02-14T08:46:55;102899.07;;;8.19;48.14
47706;BME280;33471;52.104;1.318;2023-02-14T08:49:22;102906.77;;;8.14;48.01
47706;BME280;33471;52.104;1.318;2023-02-14T08:51:49;102909.60;;;8.14;48.78
47706;BME280;33471;52.104;1.318;2023-02-14T08:54:17;102913.87;;;7.97;49.17
47706;BME280;33471;52.104;1.318;2023-02-14T08:56:44;102911.56;;;7.73;48.31
47706;BME280;33471;52.104;1.318;2023-02-14T08:59:11;102905.19;;;8.45;48.83
47706;BME280;33471;52.104;1.318;2023-02-14T09:01:38;102906.41;;;7.57;47.94
47706;BME280;33471;52.104;1.318;2023-02-14T09:04:06;102899.54;;;7.87;47.37
47706;BME280;33471;52.104;1.318;2023-02-14T09:06:37;102896.71;;;8.09;48.41
47706;BME280;33471;52.104;1.318;2023-02-14T09:09:05;102903.25;;;8.66;47.77
47706;BME280;33471;52.104;1.318;2023-02-14T09:11:32;102905.35;;;7.05;49.20
47706;BME280;33471;52.104;1.318;2023-02-14T09:14:00;102898.76;;;8.04;48.37
47706;BME280;33471;52.104;1.318;2023-02-14T09:16:27;102903.95;;;7.59;49.10
47706;BME280;33471;52.104;1.318;2023-02-14T09:18:54;102895.55;;;7.78;49.17
47706;BME280;33471;52.104;1.318;2023-02-14T09:21:24;102891.60;;;8.24;48.50
47706;BME280;33471;52.104;1.318;2023-02-14T09:23:52;102892.67;;;8.57;47.79
47706;BME280;33471;52.104;1.318;2023-02-14T09:26:19;102890.84;;;8.28;48.13
47706;BME280;33471;52.104;1.318;2023-02-14T09:28:47;102893.70;;;9.15;48.03
47706;BME280;33471;52.104;1.318;2023-02-14T09:31:16;102889.27;;;8.32;48.50
47706;BME280;33471;52.104;1.318;2023-02-14T09:33:45;102886.71;;;8.81;48.50
47706;BME280;33471;52.104;1.318;2023-02-14T09:36:13;102891.95;;;8.84;48.54
47706;BME280;33471;52.104;1.318;2023-02-14T09:38:40;102894.27;;;9.30;48.20
47706;BME280;33471;52.104;1.318;2023-02-14T09:41:15;102896.55;;;9.26;47.67
47706;BME280;33471;52.104;1.318;2023-02-14T09:43:53;102895.87;;;8.54;49.69
47706;BME280;33471;52.104;1.318;2023-02-14T09:46:24;102896.91;;;8.69;50.27
47706;BME280;33471;52.104;1.318;2023-02-14T09:48:54;102889.22;;;8.44;51.27
47706;BME280;33471;52.104;1.318;2023-02-14T09:51:24;102894.05;;;7.88;52.49
47706;BME280;33471;52.104;1.318;2023-02-14T09:53:57;102888.91;;;8.24;51.73
47706;BME280;33471;52.104;1.318;2023-02-14T09:56:31;102892.49;;;8.29;52.34
47706;BME280;33471;52.104;1.318;2023-02-14T09:59:06;102889.62;;;8.89;51.60
47706;BME280;33471;52.104;1.318;2023-02-14T10:01:39;102891.45;;;8.59;51.18
47706;BME280;33471;52.104;1.318;2023-02-14T10:04:17;102895.28;;;8.87;52.07
47706;BME280;33471;52.104;1.318;2023-02-14T10:06:50;102894.48;;;8.08;52.42
47706;BME280;33471;52.104;1.318;2023-02-14T10:09:37;102888.33;;;8.85;51.88
47706;BME280;33471;52.104;1.318;2023-02-14T10:12:13;102890.12;;;8.76;50.95
47706;BME280;33471;52.104;1.318;2023-02-14T10:14:42;102889.84;;;9.33;49.91
47706;BME280;33471;52.104;1.318;2023-02-14T10:17:15;102891.01;;;10.13;49.01
47706;BME280;33471;52.104;1.318;2023-02-14T10:19:45;102896.26;;;9.94;48.67
47706;BME280;33471;52.104;1.318;2023-02-14T10:22:15;102893.46;;;10.18;49.12
47706;BME280;33471;52.104;1.318;2023-02-14T10:24:46;102889.83;;;9.87;49.50
47706;BME280;33471;52.104;1.318;2023-02-14T10:27:28;102888.99;;;10.23;49.66
47706;BME280;33471;52.104;1.318;2023-02-14T10:29:56;102887.43;;;9.83;50.47
47706;BME280;33471;52.104;1.318;2023-02-14T10:32:29;102887.92;;;9.93;50.56
47706;BME280;33471;52.104;1.318;2023-02-14T10:35:00;102894.69;;;9.90;51.62
47706;BME280;33471;52.104;1.318;2023-02-14T10:37:45;102891.55;;;9.42;51.95
47706;BME280;33471;52.104;1.318;2023-02-14T10:40:28;102889.03;;;9.17;52.78
47706;BME280;33471;52.104;1.318;2023-02-14T10:43:06;102885.32;;;9.66;51.45
47706;BME280;33471;52.104;1.318;2023-02-14T10:45:42;102879.66;;;10.21;51.44
47706;BME280;33471;52.104;1.318;2023-02-14T10:48:18;102876.29;;;10.51;50.54
47706;BME280;33471;52.104;1.318;2023-02-14T10:50:54;102872.46;;;10.64;50.34
47706;BME280;33471;52.104;1.318;2023-02-14T10:53:30;102872.00;;;10.97;50.19
47706;BME280;33471;52.104;1.318;2023-02-14T10:56:04;102872.57;;;10.88;49.78
47706;BME280;33471;52.104;1.318;2023-02-14T10:58:35;102871.12;;;11.11;49.81
47706;BME280;33471;52.104;1.318;2023-02-14T11:01:07;102868.22;;;11.51;48.96
47706;BME280;33471;52.104;1.318;2023-02-14T11:03:39;102864.59;;;11.66;49.00
47706;BME280;33471;52.104;1.318;2023-02-14T11:06:07;102862.00;;;11.32;49.66
47706;BME280;33471;52.104;1.318;2023-02-14T11:08:36;102860.35;;;11.20;49.75
47706;BME280;33471;52.104;1.318;2023-02-14T11:11:10;102854.95;;;11.50;49.70
47706;BME280;33471;52.104;1.318;2023-02-14T11:13:41;102858.90;;;11.85;48.98
47706;BME280;33471;52.104;1.318;2023-02-14T11:16:10;102851.17;;;11.97;49.08
47706;BME280;33471;52.104;1.318;2023-02-14T11:18:39;102849.00;;;11.71;49.46
47706;BME280;33471;52.104;1.318;2023-02-14T11:21:09;102847.11;;;11.63;50.22
47706;BME280;33471;52.104;1.318;2023-02-14T11:23:39;102839.96;;;12.30;49.99
47706;BME280;33471;52.104;1.318;2023-02-14T11:26:13;102835.14;;;11.87;49.93
47706;BME280;33471;52.104;1.318;2023-02-14T11:28:49;102831.44;;;12.41;48.98
47706;BME280;33471;52.104;1.318;2023-02-14T11:31:28;102827.26;;;12.55;48.32
47706;BME280;33471;52.104;1.318;2023-02-14T11:33:57;102825.35;;;12.06;48.86
47706;BME280;33471;52.104;1.318;2023-02-14T11:36:25;102819.91;;;12.62;48.53
47706;BME280;33471;52.104;1.318;2023-02-14T11:38:57;102817.27;;;12.35;48.49
47706;BME280;33471;52.104;1.318;2023-02-14T11:41:44;102813.92;;;12.48;47.90
47706;BME280;33471;52.104;1.318;2023-02-14T11:44:15;102803.74;;;12.88;48.17
47706;BME280;33471;52.104;1.318;2023-02-14T11:46:44;102802.46;;;13.28;47.04
47706;BME280;33471;52.104;1.318;2023-02-14T11:49:24;102804.40;;;12.80;47.57
47706;BME280;33471;52.104;1.318;2023-02-14T11:51:52;102802.32;;;13.78;46.36
47706;BME280;33471;52.104;1.318;2023-02-14T11:54:29;102800.51;;;13.09;47.49
47706;BME280;33471;52.104;1.318;2023-02-14T11:57:03;102798.02;;;13.83;46.98
47706;BME280;33471;52.104;1.318;2023-02-14T11:59:34;102794.34;;;13.48;47.55
47706;BME280;33471;52.104;1.318;2023-02-14T12:02:20;102794.21;;;14.03;46.29
47706;BME280;33471;52.104;1.318;2023-02-14T12:04:50;102793.74;;;14.04;46.65
47706;BME280;33471;52.104;1.318;2023-02-14T12:07:21;102786.28;;;13.94;45.81
47706;BME280;33471;52.104;1.318;2023-02-14T12:10:07;102785.76;;;14.43;45.38
47706;BME280;33471;52.104;1.318;2023-02-14T12:12:35;102780.31;;;14.14;45.13
47706;BME280;33471;52.104;1.318;2023-02-14T12:15:26;102775.31;;;13.81;46.03
47706;BME280;33471;52.104;1.318;2023-02-14T12:17:59;102777.93;;;14.45;45.34
47706;BME280;33471;52.104;1.318;2023-02-14T12:20:37;102777.44;;;14.04;45.80
47706;BME280;33471;52.104;1.318;2023-02-14T12:23:16;102772.25;;;14.08;45.07
47706;BME280;33471;52.104;1.318;2023-02-14T12:25:49;102773.40;;;14.46;44.37
47706;BME280;33471;52.104;1.318;2023-02-14T12:28:21;102769.44;;;14.40;44.70
47706;BME280;33471;52.104;1.318;2023-02-14T12:30:52;102768.32;;;14.36;44.76
47706;BME280;33471;52.104;1.318;2023-02-14T12:33:21;102769.01;;;14.30;44.96
47706;BME280;33471;52.104;1.318;2023-02-14T12:35:54;102763.31;;;14.12;44.89
47706;BME280;33471;52.104;1.318;2023-02-14T12:38:39;102764.04;;;14.23;45.13
47706;BME280;33471;52.104;1.318;2023-02-14T12:41:21;102758.74;;;14.50;43.84
47706;BME280;33471;52.104;1.318;2023-02-14T12:43:53;102755.19;;;14.00;43.86
47706;BME280;33471;52.104;1.318;2023-02-14T12:46:38;102754.85;;;14.32;43.51
47706;BME280;33471;52.104;1.318;2023-02-14T12:49:28;102754.18;;;14.28;43.05
47706;BME280;33471;52.104;1.318;2023-02-14T12:52:08;102753.59;;;14.98;42.85
47706;BME280;33471;52.104;1.318;2023-02-14T12:54:49;102749.84;;;14.18;43.17
47706;BME280;33471;52.104;1.318;2023-02-14T12:57:31;102748.84;;;15.08;42.99
47706;BME280;33471;52.104;1.318;2023-02-14T13:00:14;102747.32;;;14.78;43.08
47706;BME280;33471;52.104;1.318;2023-02-14T13:03:00;102741.73;;;14.81;42.31
47706;BME280;33471;52.104;1.318;2023-02-14T13:05:45;102738.39;;;14.58;41.59
47706;BME280;33471;52.104;1.318;2023-02-14T13:08:27;102736.64;;;14.77;41.82
47706;BME280;33471;52.104;1.318;2023-02-14T13:11:04;102733.62;;;15.10;40.80
47706;BME280;33471;52.104;1.318;2023-02-14T13:13:43;102730.48;;;15.09;41.81
47706;BME280;33471;52.104;1.318;2023-02-14T13:16:20;102720.68;;;15.06;40.77
47706;BME280;33471;52.104;1.318;2023-02-14T13:18:52;102717.93;;;15.11;41.22